Portada
METAR-TAF:

METAR-TAF

Aeroports :

Hyderabad, Índia

latitud: 17-27N, longitud: 078-28E, altitud: 530 m

Observació

L'informe es va fer fa 7 hores i 46 minuts, a les 16:00 UTC
Vent 3 kt del Nord-Est
Temperatura 25°C
Humitat 44%
Pressió 1017 hPa
Visibilitat: 6000 m

METAR: VOHY 271600Z 05003KT 6000 NSC 25/12 Q1017 NOSIG

Hora: 05:16 (23:46 UTC)

Pronòstic

L'informe es va fer fa 46 minuts, a les 23:00 UTC
Pronòstic vàlid del 28 a les 00 UTC al 28 a les 09 UTC
Vent 6 kt del Sud-Est
Visibilitat: 5000 m
Núvols disperses a una alçada de 1500 ft
calitja
Temporalment
entre 28 i 00 UTC
Visibilitat: 3000 m
Núvols disperses a una alçada de 1000 ft
boirina
Evolucionant progressivament
l' 28 a les 03 UTC al 28 a les 06 UTC
Vent 8 kt del Est/Sud-Est
Visibilitat: 6000 m
Núvols disperses a una alçada de 1500 ft
Núvols disperses a una alçada de 2500 ft

TAF: VOHY 272300Z 2800/2809 14006KT 5000 HZ SCT015 TEMPO 2800 /2803 3000 BR SCT010 BECMG 2803/2806 12008KT 6000 SCT015 SCT025

Observacions i pronòstics meteorològics de més de 4000 aeroports (METAR i TAF).

Les estacions disponibles són els punts grocs i vermells al mapa.

Posi el ratolí al punt desitjat per veure el nom de l'estació.

Feu clic per veure les observacions i els pronòstics meteorològics.

Per canviar el mapa: feu clic els botons verds amb una creu de color negre per apropar; al botó verd amb un guió per allunyar la imatge; o en les fletxes verdes per a mapes adjacents.


METAR-TAF: